createdAt,value
2017-12-04T15:16:29.954Z,101534.17
2017-12-04T15:18:59.159Z,101537.71
2017-12-04T15:21:28.367Z,101538.26
2017-12-04T15:23:57.878Z,101536.76
2017-12-04T15:26:27.115Z,101553.14
2017-12-04T15:28:56.312Z,101550.14
2017-12-04T15:31:25.519Z,101551.91
2017-12-04T15:33:54.771Z,101555.16
2017-12-04T15:36:24.796Z,101550.53
2017-12-04T15:38:54.738Z,101550.12
2017-12-04T15:41:23.943Z,101550.94
2017-12-04T15:43:53.152Z,101554.70
2017-12-04T15:46:22.383Z,101554.04
2017-12-04T15:48:51.604Z,101549.28
2017-12-04T15:51:21.681Z,101557.12
2017-12-04T15:53:50.893Z,101562.53
2017-12-04T15:56:20.185Z,101564.00
2017-12-04T15:58:49.416Z,101561.69
2017-12-04T16:01:19.524Z,101566.55
2017-12-04T16:03:49.527Z,101570.58
2017-12-04T16:06:18.742Z,101583.42
2017-12-04T16:08:48.696Z,101583.98
2017-12-04T16:11:17.905Z,101596.97
2017-12-04T16:13:47.128Z,101595.08
2017-12-04T16:16:16.344Z,101600.88
2017-12-04T16:18:46.348Z,101609.78
2017-12-04T16:21:15.597Z,101616.40
2017-12-04T16:23:45.615Z,101613.42
2017-12-04T16:26:14.859Z,101611.67
2017-12-04T16:28:44.077Z,101621.02
2017-12-04T16:31:13.325Z,101619.56
2017-12-04T16:33:42.540Z,101620.52
2017-12-04T16:36:11.785Z,101622.13
2017-12-04T16:38:41.039Z,101615.53
2017-12-04T16:41:10.235Z,101621.75
2017-12-04T16:43:39.485Z,101623.11
2017-12-04T16:46:08.697Z,101624.05
2017-12-04T16:48:37.947Z,101627.05
2017-12-04T16:51:07.944Z,101619.89
2017-12-04T16:53:37.159Z,101625.56
2017-12-04T16:56:06.383Z,101636.92
2017-12-04T16:58:36.372Z,101639.36
2017-12-04T17:01:05.638Z,101641.49
2017-12-04T17:03:34.864Z,101648.13
2017-12-04T17:06:04.835Z,101645.41
2017-12-04T17:08:34.193Z,101649.73
2017-12-04T17:11:03.391Z,101645.28
2017-12-04T17:13:33.388Z,101648.39
2017-12-04T17:16:02.913Z,101652.17
2017-12-04T17:18:32.185Z,101660.02
2017-12-04T17:21:01.450Z,101659.07
2017-12-04T17:23:30.652Z,101656.34
2017-12-04T17:25:59.887Z,101661.61
2017-12-04T17:28:29.424Z,101658.50
2017-12-04T17:30:58.687Z,101669.58
2017-12-04T17:33:27.894Z,101672.66
2017-12-04T17:35:57.122Z,101675.67
2017-12-04T17:38:26.322Z,101677.80
2017-12-04T17:40:55.559Z,101677.94
2017-12-04T17:43:24.784Z,101684.97
2017-12-04T17:45:54.818Z,101685.23
2017-12-04T17:48:24.832Z,101685.91
2017-12-04T17:50:54.893Z,101681.18
2017-12-04T17:53:24.156Z,101695.67
2017-12-04T17:55:54.164Z,101699.46
2017-12-04T17:58:24.126Z,101697.84
2017-12-04T18:00:53.398Z,101707.70
2017-12-04T18:03:22.599Z,101703.48
2017-12-04T18:05:51.806Z,101702.57
2017-12-04T18:08:21.017Z,101703.55
2017-12-04T18:10:50.221Z,101707.44
2017-12-04T18:13:19.516Z,101709.06
2017-12-04T18:15:48.746Z,101715.02
2017-12-04T18:18:17.981Z,101724.74
2017-12-04T18:20:47.177Z,101720.95
2017-12-04T18:23:17.174Z,101722.31
2017-12-04T18:25:47.171Z,101725.28
2017-12-04T18:28:17.223Z,101727.89
2017-12-04T18:30:46.458Z,101722.85
2017-12-04T18:33:15.768Z,101724.07
2017-12-04T18:35:44.959Z,101727.04
2017-12-04T18:38:14.249Z,101725.18
2017-12-04T18:40:43.458Z,101731.41
2017-12-04T18:43:12.743Z,101730.19
2017-12-04T18:45:41.940Z,101730.59
2017-12-04T18:48:11.149Z,101735.59
2017-12-04T18:50:40.377Z,101737.05
2017-12-04T18:53:09.600Z,101732.58
2017-12-04T18:55:38.821Z,101727.81
2017-12-04T18:58:08.076Z,101722.13
2017-12-04T19:00:37.326Z,101716.72
2017-12-04T19:03:08.295Z,101725.88
2017-12-04T19:05:37.586Z,101726.52
2017-12-04T19:08:06.933Z,101730.44
2017-12-04T19:10:36.971Z,101735.84
2017-12-04T19:13:06.226Z,101732.23
2017-12-04T19:15:36.179Z,101733.72
2017-12-04T19:18:05.501Z,101738.59
2017-12-04T19:20:34.683Z,101746.56
2017-12-04T19:23:03.976Z,101745.52
2017-12-04T19:25:33.251Z,101746.88
2017-12-04T19:28:02.461Z,101752.73
2017-12-04T19:30:31.683Z,101758.84
2017-12-04T19:33:00.899Z,101763.98
2017-12-04T19:35:30.171Z,101761.92
2017-12-04T19:37:59.522Z,101758.84
2017-12-04T19:40:29.579Z,101766.56
2017-12-04T19:42:58.850Z,101774.41
2017-12-04T19:45:28.136Z,101782.11
2017-12-04T19:47:57.624Z,101779.41
2017-12-04T19:50:26.825Z,101782.10
2017-12-04T19:52:56.039Z,101778.05
2017-12-04T19:55:26.411Z,101782.78
2017-12-04T19:57:55.635Z,101779.00
2017-12-04T20:00:25.869Z,101788.20
2017-12-04T20:02:55.201Z,101784.23
2017-12-04T20:05:24.434Z,101788.06
2017-12-04T20:07:53.791Z,101783.54
2017-12-04T20:10:23.859Z,101780.39
2017-12-04T20:12:53.157Z,101778.53
2017-12-04T20:15:22.462Z,101773.39
2017-12-04T20:17:51.708Z,101777.18
2017-12-04T20:20:20.990Z,101778.27
2017-12-04T20:22:50.228Z,101782.59
2017-12-04T20:25:19.529Z,101784.89
2017-12-04T20:27:48.803Z,101785.16
2017-12-04T20:30:17.992Z,101785.16
2017-12-04T20:32:47.961Z,101788.58
2017-12-04T20:35:17.212Z,101787.23
2017-12-04T20:37:47.217Z,101796.66
2017-12-04T20:40:16.459Z,101792.87
2017-12-04T20:42:45.766Z,101795.84
2017-12-04T20:45:15.035Z,101799.50
2017-12-04T20:47:45.026Z,101801.83
2017-12-04T20:50:14.298Z,101807.75
2017-12-04T20:52:43.459Z,101806.67
2017-12-04T20:55:12.752Z,101814.91
2017-12-04T20:57:42.312Z,101813.25
2017-12-04T21:00:11.582Z,101813.25
2017-12-04T21:02:40.846Z,101822.58
2017-12-04T21:05:10.115Z,101821.36
2017-12-04T21:07:51.834Z,101820.95
2017-12-04T21:10:39.503Z,101825.83
2017-12-04T21:13:26.490Z,101834.88
2017-12-04T21:16:26.623Z,101832.72
2017-12-04T21:18:55.850Z,101833.53
2017-12-04T21:21:25.165Z,101833.81
2017-12-04T21:23:54.347Z,101838.72
2017-12-04T21:26:23.607Z,101841.52
2017-12-04T21:28:52.833Z,101838.13
2017-12-04T21:31:22.152Z,101845.75
2017-12-04T21:33:52.122Z,101843.31
2017-12-04T21:36:22.129Z,101845.61
2017-12-04T21:38:51.435Z,101844.53
2017-12-04T21:41:20.683Z,101846.87
2017-12-04T21:43:50.061Z,101850.11
2017-12-04T21:46:19.242Z,101853.09
2017-12-04T21:48:48.564Z,101853.77
2017-12-04T21:51:17.785Z,101852.28
2017-12-04T21:53:47.041Z,101853.09
2017-12-04T21:56:16.260Z,101858.91
2017-12-04T21:58:45.475Z,101857.47
2017-12-04T22:01:14.849Z,101857.88
2017-12-04T22:03:44.075Z,101864.50
2017-12-04T22:06:13.310Z,101868.56
2017-12-04T22:08:43.285Z,101871.67
2017-12-04T22:11:12.526Z,101870.19
2017-12-04T22:13:42.501Z,101867.34
2017-12-04T22:16:11.784Z,101874.78
2017-12-04T22:18:41.165Z,101872.84
2017-12-04T22:21:11.233Z,101865.80
2017-12-04T22:23:40.486Z,101870.81
2017-12-04T22:26:09.703Z,101865.14
2017-12-04T22:28:38.906Z,101869.73
2017-12-04T22:31:08.152Z,101865.54
2017-12-04T22:33:38.157Z,101874.88
2017-12-04T22:36:08.111Z,101873.66
2017-12-04T22:38:37.317Z,101883.94
2017-12-04T22:41:06.528Z,101876.50
2017-12-04T22:43:35.784Z,101888.45
2017-12-04T22:46:04.972Z,101878.97
2017-12-04T22:48:34.186Z,101883.30
2017-12-04T22:51:03.670Z,101884.20
2017-12-04T22:53:32.880Z,101883.49
2017-12-04T22:56:02.230Z,101889.30
2017-12-04T22:58:31.434Z,101890.38
2017-12-04T23:01:00.654Z,101898.35
2017-12-04T23:03:30.643Z,101900.78
2017-12-04T23:05:59.973Z,101897.69
2017-12-04T23:08:29.955Z,101896.20
2017-12-04T23:10:59.231Z,101899.22
2017-12-04T23:13:28.426Z,101899.62
2017-12-04T23:15:57.638Z,101904.98
2017-12-04T23:18:26.826Z,101897.23
